Time;durP1;ratioP1;P1;durP2;ratioP2;P2;SDS_P1;SDS_P2;PMS_P1;PMS_P2;Temp;Humidity;BMP_temperature;BMP_pressure;BME280_temperature;BME280_humidity;BME280_pressure;Samples;Min_cycle;Max_cycle;Signal;HPM_P1;HPM_P2
2022/07/09 00:01:59;;;;;;;2.55;0.90;;;;;;;20.56;48.32;94369.53;6093703;23;20050;-92
2022/07/09 00:04:31;;;;;;;1.25;0.90;;;;;;;20.57;48.48;94371.00;6034529;23;20085;-91
2022/07/09 00:06:58;;;;;;;0.70;0.70;;;;;;;20.58;48.46;94383.50;6095412;23;20022;-91
2022/07/09 00:09:45;;;;;;;1.52;0.98;;;;;;;20.58;48.80;94369.00;5968951;23;20160;-91
2022/07/09 00:12:25;;;;;;;3.17;0.80;;;;;;;20.58;48.46;94367.00;5991644;23;20067;-91
2022/07/09 00:14:54;;;;;;;0.90;0.70;;;;;;;20.59;48.45;94367.75;5977652;23;20349;-91
2022/07/09 00:17:29;;;;;;;0.88;0.70;;;;;;;20.57;48.47;94359.31;5992097;23;20107;-91
2022/07/09 00:20:02;;;;;;;1.17;0.93;;;;;;;20.56;48.55;94350.31;6007932;23;20051;-91
2022/07/09 00:22:51;;;;;;;1.10;0.95;;;;;;;20.57;48.26;94362.78;5969607;23;20594;-91
2022/07/09 00:25:20;;;;;;;1.13;0.77;;;;;;;20.56;48.15;94353.06;6009095;23;20023;-92
2022/07/09 00:27:47;;;;;;;1.27;0.90;;;;;;;20.56;48.61;94346.81;6020598;23;20022;-91
2022/07/09 00:30:14;;;;;;;1.42;1.00;;;;;;;20.56;48.36;94338.56;6064838;23;20105;-93
2022/07/09 00:32:41;;;;;;;2.95;0.98;;;;;;;20.56;48.54;94344.81;6086486;23;20485;-91
2022/07/09 00:35:11;;;;;;;1.30;0.90;;;;;;;20.56;48.42;94344.81;6031778;23;20031;-91
2022/07/09 00:37:40;;;;;;;1.65;0.80;;;;;;;20.56;48.65;94336.59;6027625;23;20517;-91
2022/07/09 00:40:08;;;;;;;1.65;1.05;;;;;;;20.55;48.46;94337.09;5935043;24;20028;-92
2022/07/09 00:42:46;;;;;;;1.42;0.80;;;;;;;20.56;48.38;94339.31;5922299;24;20023;-92
2022/07/09 00:45:19;;;;;;;0.80;0.68;;;;;;;20.56;48.46;94328.34;5908763;24;20025;-91
2022/07/09 00:47:47;;;;;;;1.08;0.80;;;;;;;20.56;48.54;94324.84;5921480;24;20020;-91
2022/07/09 00:50:22;;;;;;;0.77;0.70;;;;;;;20.55;48.66;94337.84;5891956;24;20142;-91
2022/07/09 00:52:53;;;;;;;1.25;0.73;;;;;;;20.56;48.74;94328.34;5860011;24;20085;-91
2022/07/09 00:55:22;;;;;;;0.80;0.77;;;;;;;20.56;48.58;94333.09;5922946;24;20116;-92
2022/07/09 00:57:49;;;;;;;1.05;0.70;;;;;;;20.56;48.56;94322.09;6198743;22;20017;-91
2022/07/09 01:00:18;;;;;;;2.25;0.70;;;;;;;20.55;48.48;94321.34;6140762;23;20032;-90
2022/07/09 01:02:48;;;;;;;1.27;0.80;;;;;;;20.55;48.65;94326.84;6157752;23;20016;-91
2022/07/09 01:05:19;;;;;;;1.02;0.68;;;;;;;20.55;48.60;94317.84;6087427;23;20080;-91
2022/07/09 01:07:46;;;;;;;0.50;0.50;;;;;;;20.55;48.49;94326.84;6095527;23;20189;-91
2022/07/09 01:10:13;;;;;;;1.17;0.90;;;;;;;20.53;48.50;94319.09;6070327;23;20022;-92
2022/07/09 01:12:41;;;;;;;1.33;0.90;;;;;;;20.53;48.46;94321.84;6056428;23;20071;-91
2022/07/09 01:15:14;;;;;;;0.77;0.73;;;;;;;20.56;48.65;94322.09;6054422;23;20030;-91
2022/07/09 01:17:40;;;;;;;1.02;0.90;;;;;;;20.53;48.63;94318.34;6070681;23;20030;-91
2022/07/09 01:20:07;;;;;;;1.48;0.73;;;;;;;20.56;48.84;94314.59;6045720;23;20022;-91
2022/07/09 01:22:35;;;;;;;1.10;1.00;;;;;;;20.54;48.34;94308.88;5995778;23;20027;-91
2022/07/09 01:25:02;;;;;;;1.25;0.93;;;;;;;20.56;48.70;94317.34;6007018;23;20028;-91
2022/07/09 01:27:34;;;;;;;0.73;0.70;;;;;;;20.56;48.62;94308.38;5980612;23;20031;-91
2022/07/09 01:30:02;;;;;;;1.45;0.98;;;;;;;20.53;48.57;94308.13;5951836;23;20103;-92
2022/07/09 01:32:29;;;;;;;2.30;0.70;;;;;;;20.54;48.59;94308.88;5934478;23;20570;-92
2022/07/09 01:34:59;;;;;;;1.65;1.00;;;;;;;20.53;48.59;94308.13;5949840;24;20103;-91
2022/07/09 01:37:25;;;;;;;2.08;0.90;;;;;;;20.56;48.71;94302.88;5932380;24;20031;-92
2022/07/09 01:39:55;;;;;;;1.20;0.85;;;;;;;20.53;48.49;94308.13;5922454;24;20031;-92
2022/07/09 01:42:23;;;;;;;1.70;0.90;;;;;;;20.54;48.57;94308.88;5910749;24;20461;-92
2022/07/09 01:44:53;;;;;;;1.05;0.70;;;;;;;20.52;48.55;94295.63;5840573;24;20033;-92
2022/07/09 01:47:20;;;;;;;0.90;0.60;;;;;;;20.55;48.66;94288.38;5874136;24;20029;-91
2022/07/09 01:49:47;;;;;;;1.77;0.88;;;;;;;20.53;48.45;94299.13;5845545;24;20107;-91
2022/07/09 01:52:12;;;;;;;2.20;0.90;;;;;;;20.53;48.62;94277.16;5844635;24;20030;-91
2022/07/09 01:54:39;;;;;;;2.83;0.80;;;;;;;20.53;48.66;94288.13;5806506;24;20014;-92
2022/07/09 01:57:06;;;;;;;2.83;1.00;;;;;;;20.52;48.55;94273.66;5877730;24;20033;-92
2022/07/09 01:59:33;;;;;;;1.63;0.90;;;;;;;20.52;48.71;94279.16;5886673;24;20600;-91
2022/07/09 02:02:02;;;;;;;1.98;1.08;;;;;;;20.53;48.60;94274.41;5929677;24;20028;-91
2022/07/09 02:04:30;;;;;;;1.08;0.98;;;;;;;20.52;48.65;94275.66;5969461;23;20018;-91
2022/07/09 02:07:04;;;;;;;0.93;0.70;;;;;;;20.53;48.36;94274.41;5911198;24;20032;-91
2022/07/09 02:09:35;;;;;;;1.40;0.82;;;;;;;20.53;48.40;94277.16;5907520;24;20022;-91
2022/07/09 02:12:02;;;;;;;0.80;0.80;;;;;;;20.53;48.42;94271.66;5926211;24;20096;-91
2022/07/09 02:14:28;;;;;;;0.93;0.80;;;;;;;20.52;48.33;94272.91;5919864;24;20021;-91
2022/07/09 02:16:57;;;;;;;0.80;0.73;;;;;;;20.53;48.45;94263.41;5941674;24;20025;-91
2022/07/09 02:19:27;;;;;;;1.00;0.70;;;;;;;20.53;48.63;94268.91;5925748;24;20467;-91
2022/07/09 02:21:55;;;;;;;2.45;1.17;;;;;;;20.52;48.51;94270.16;5959148;23;20036;-91
2022/07/09 02:24:22;;;;;;;1.63;0.85;;;;;;;20.52;48.56;94268.16;5972860;23;20149;-91
2022/07/09 02:26:58;;;;;;;0.90;0.73;;;;;;;20.52;48.46;94268.16;5980038;23;20028;-91
2022/07/09 02:29:36;;;;;;;1.40;0.77;;;;;;;20.52;48.45;94265.41;5977188;23;20028;-91
2022/07/09 02:32:13;;;;;;;0.70;0.60;;;;;;;20.52;48.60;94259.91;5986495;23;20399;-92
2022/07/09 02:34:51;;;;;;;1.10;0.70;;;;;;;20.52;48.57;94262.66;6054672;23;20064;-91
2022/07/09 02:37:19;;;;;;;1.20;0.80;;;;;;;20.52;48.64;94276.41;6086023;23;20108;-91
2022/07/09 02:39:46;;;;;;;1.20;0.90;;;;;;;20.52;48.52;94265.41;6109385;23;20047;-92
2022/07/09 02:42:14;;;;;;;1.50;0.80;;;;;;;20.51;48.77;94269.41;6084599;23;20575;-91
2022/07/09 02:44:45;;;;;;;1.60;0.95;;;;;;;20.53;48.40;94268.91;6087915;23;20017;-92
2022/07/09 02:47:12;;;;;;;1.00;0.80;;;;;;;20.52;48.58;94256.44;6104568;23;20070;-91
2022/07/09 02:49:40;;;;;;;1.05;0.93;;;;;;;20.50;48.67;94256.94;6079585;23;20023;-91
2022/07/09 02:52:11;;;;;;;1.85;0.80;;;;;;;20.52;48.67;94259.16;6109886;23;20029;-91
2022/07/09 02:54:37;;;;;;;1.50;0.70;;;;;;;20.51;48.37;94255.69;6040225;23;20014;-92
2022/07/09 02:57:04;;;;;;;2.05;0.75;;;;;;;20.51;48.54;94252.94;6115156;23;20036;-91
2022/07/09 02:59:40;;;;;;;1.65;0.82;;;;;;;20.51;48.54;94254.94;6126678;23;20013;-92
2022/07/09 03:02:06;;;;;;;1.83;1.00;;;;;;;20.51;48.50;94252.94;6136868;23;20024;-93
2022/07/09 03:04:34;;;;;;;1.40;0.77;;;;;;;20.51;48.68;94255.69;6148121;23;20552;-91
2022/07/09 03:07:06;;;;;;;0.95;0.70;;;;;;;20.52;48.57;94248.94;6054891;23;20454;-91
2022/07/09 03:09:33;;;;;;;0.77;0.50;;;;;;;20.51;48.57;94257.69;6066626;23;20121;-91
2022/07/09 03:11:59;;;;;;;1.92;1.10;;;;;;;20.51;48.62;94257.69;6039064;23;20023;-91
2022/07/09 03:14:28;;;;;;;1.45;0.75;;;;;;;20.51;48.52;94258.44;6062148;23;20070;-91
2022/07/09 03:16:55;;;;;;;1.63;1.00;;;;;;;20.52;48.74;94253.69;6063585;23;20023;-91
2022/07/09 03:19:27;;;;;;;1.55;1.25;;;;;;;20.51;48.78;94255.69;6014823;23;20045;-91
2022/07/09 03:21:53;;;;;;;1.55;0.70;;;;;;;20.51;48.42;94243.94;6035717;23;20027;-92
2022/07/09 03:24:20;;;;;;;1.23;0.80;;;;;;;20.52;48.57;94264.66;6011853;23;20023;-91
2022/07/09 03:26:47;;;;;;;1.10;0.60;;;;;;;20.51;48.52;94252.94;6137956;23;20022;-92
2022/07/09 03:29:30;;;;;;;2.38;0.90;;;;;;;20.51;48.43;94252.94;6104502;23;20096;-92
2022/07/09 03:32:03;;;;;;;1.08;0.77;;;;;;;20.51;48.10;94254.94;6123327;23;20025;-91
2022/07/09 03:34:29;;;;;;;1.48;0.75;;;;;;;20.53;48.41;94252.44;6134115;23;20212;-91
2022/07/09 03:37:00;;;;;;;1.88;0.90;;;;;;;20.52;48.70;94257.19;6105666;23;20045;-91
2022/07/09 03:39:27;;;;;;;1.92;1.00;;;;;;;20.51;48.69;94254.94;6129022;23;20817;-91
2022/07/09 03:41:55;;;;;;;0.85;0.60;;;;;;;20.52;48.78;94256.44;6058261;23;20101;-91
2022/07/09 03:44:23;;;;;;;0.80;0.68;;;;;;;20.52;48.50;94257.19;6096598;23;20021;-91
2022/07/09 03:46:48;;;;;;;1.20;0.90;;;;;;;20.52;48.84;94259.16;6156610;23;20052;-91
2022/07/09 03:49:27;;;;;;;1.17;0.80;;;;;;;20.52;48.55;94262.66;6133340;23;20028;-92
2022/07/09 03:51:53;;;;;;;0.95;0.80;;;;;;;20.52;48.81;94261.91;6144279;23;20025;-92
2022/07/09 03:54:20;;;;;;;0.80;0.57;;;;;;;20.52;48.51;94268.16;6095666;23;20080;-91
2022/07/09 03:56:46;;;;;;;0.80;0.65;;;;;;;20.55;48.46;94271.16;6125840;23;20033;-91
2022/07/09 03:59:15;;;;;;;0.52;0.47;;;;;;;20.53;48.49;94266.91;6098790;23;20030;-92
2022/07/09 04:01:42;;;;;;;2.70;0.82;;;;;;;20.54;48.54;94262.16;6086594;23;20025;-92
2022/07/09 04:04:13;;;;;;;0.35;0.35;;;;;;;20.53;48.54;94261.41;6062608;23;20027;-91
2022/07/09 04:06:41;;;;;;;1.17;0.63;;;;;;;20.52;48.58;94262.66;6016244;23;20037;-91
2022/07/09 04:09:13;;;;;;;0.82;0.65;;;;;;;20.55;48.68;94251.94;6026591;23;20459;-91
2022/07/09 04:11:42;;;;;;;0.70;0.60;;;;;;;20.55;48.49;94258.16;6044713;23;20023;-91
2022/07/09 04:14:19;;;;;;;0.98;0.60;;;;;;;20.57;48.59;94266.63;6104888;23;20541;-92
2022/07/09 04:16:49;;;;;;;1.35;0.80;;;;;;;20.55;48.59;94257.41;6069510;23;20077;-92
2022/07/09 04:19:17;;;;;;;0.60;0.60;;;;;;;20.56;48.48;94261.66;6089883;23;20022;-91
2022/07/09 04:21:43;;;;;;;0.93;0.70;;;;;;;20.55;48.79;94257.41;6096248;23;20025;-91
2022/07/09 04:24:12;;;;;;;0.82;0.60;;;;;;;20.54;48.57;94259.41;6071610;23;20026;-92
2022/07/09 04:26:43;;;;;;;1.35;0.70;;;;;;;20.55;48.65;94252.66;6075986;23;20438;-91
2022/07/09 04:29:17;;;;;;;0.82;0.55;;;;;;;20.57;48.92;94263.16;6096484;23;20089;-92
2022/07/09 04:31:46;;;;;;;1.42;0.93;;;;;;;20.56;48.54;94264.41;6087280;23;20037;-91
2022/07/09 04:34:13;;;;;;;1.17;0.80;;;;;;;20.55;48.54;94254.66;6097327;23;20018;-91
2022/07/09 04:36:40;;;;;;;1.00;0.65;;;;;;;20.55;48.63;94262.91;6111607;23;20014;-91
2022/07/09 04:39:14;;;;;;;0.70;0.52;;;;;;;20.56;48.54;94265.16;6062355;23;20348;-91
2022/07/09 04:41:40;;;;;;;1.08;0.60;;;;;;;20.57;48.43;94255.63;6083622;23;20018;-91
2022/07/09 04:44:12;;;;;;;1.27;0.85;;;;;;;20.57;48.52;94260.41;6077542;23;20029;-92
2022/07/09 04:46:37;;;;;;;1.15;0.90;;;;;;;20.57;48.68;94261.13;6091593;23;20045;-91
2022/07/09 04:49:10;;;;;;;0.60;0.50;;;;;;;20.57;48.61;94260.41;6126881;23;20021;-92
2022/07/09 04:51:37;;;;;;;0.70;0.55;;;;;;;20.58;48.60;94254.38;6098930;23;20013;-91
2022/07/09 04:54:04;;;;;;;1.23;0.70;;;;;;;20.61;48.53;94253.38;6121274;23;20029;-91
2022/07/09 04:56:31;;;;;;;0.60;0.50;;;;;;;20.64;48.40;94260.63;6088591;23;20154;-92
2022/07/09 04:59:02;;;;;;;1.27;0.90;;;;;;;20.66;48.43;94258.13;6076625;23;20029;-91
2022/07/09 05:01:29;;;;;;;0.57;0.57;;;;;;;20.68;48.42;94257.59;6069455;23;20053;-91
2022/07/09 05:03:55;;;;;;;1.13;0.60;;;;;;;20.68;48.32;94252.88;6029182;23;20060;-91
2022/07/09 05:06:20;;;;;;;1.02;0.70;;;;;;;20.71;48.14;94260.09;6016664;23;20020;-92
2022/07/09 05:08:48;;;;;;;0.85;0.75;;;;;;;20.74;48.29;94263.84;5985672;23;20435;-92
2022/07/09 05:11:21;;;;;;;0.85;0.65;;;;;;;20.75;48.10;94260.59;6017489;23;20019;-91
2022/07/09 05:13:56;;;;;;;0.77;0.70;;;;;;;20.80;48.02;94253.56;6003028;23;20051;-92
2022/07/09 05:16:22;;;;;;;0.60;0.60;;;;;;;20.78;48.10;94242.34;6015291;23;20023;-92
2022/07/09 05:18:49;;;;;;;0.90;0.70;;;;;;;20.79;47.97;94252.81;6038914;23;20035;-92
2022/07/09 05:21:24;;;;;;;0.50;0.50;;;;;;;20.82;48.19;94248.31;6037632;23;20027;-92
2022/07/09 05:23:51;;;;;;;0.63;0.63;;;;;;;20.82;47.83;94249.06;6028096;23;20015;-91
2022/07/09 05:26:21;;;;;;;0.60;0.57;;;;;;;20.83;48.01;94245.06;6050145;23;20027;-91
2022/07/09 05:28:48;;;;;;;0.80;0.50;;;;;;;20.84;47.87;94249.28;6026318;23;20028;-91
2022/07/09 05:31:17;;;;;;;0.70;0.57;;;;;;;20.86;47.98;94240.53;5935071;23;20051;-92
2022/07/09 05:33:43;;;;;;;0.50;0.50;;;;;;;20.86;47.92;94244.03;6003532;23;20068;-92
2022/07/09 05:36:10;;;;;;;0.63;0.63;;;;;;;20.90;47.90;94232.78;6003560;23;20028;-92
2022/07/09 05:38:40;;;;;;;0.60;0.50;;;;;;;20.91;47.95;94239.03;5969327;23;20020;-91
2022/07/09 05:41:10;;;;;;;0.40;0.40;;;;;;;20.92;47.75;94237.78;5952896;23;20481;-91
2022/07/09 05:43:36;;;;;;;1.48;0.70;;;;;;;20.95;47.91;94243.00;5982646;23;20020;-91
2022/07/09 05:46:05;;;;;;;1.05;0.75;;;;;;;20.95;47.76;94234.00;5978672;23;20027;-92
2022/07/09 05:48:33;;;;;;;0.43;0.43;;;;;;;20.96;47.66;94244.50;6005010;23;20057;-93
2022/07/09 05:50:59;;;;;;;0.60;0.60;;;;;;;20.98;47.70;94247.50;6000145;23;20072;-92
2022/07/09 05:53:26;;;;;;;0.75;0.60;;;;;;;21.00;47.56;94247.00;6006631;23;20016;-91
2022/07/09 05:55:54;;;;;;;0.60;0.50;;;;;;;20.99;47.52;94240.75;6033843;23;20019;-92
2022/07/09 05:58:20;;;;;;;1.40;0.65;;;;;;;20.99;47.63;94248.25;6000845;23;20023;-92
2022/07/09 06:00:54;;;;;;;0.55;0.40;;;;;;;20.97;47.81;94246.00;6016079;23;20123;-92
2022/07/09 06:03:30;;;;;;;0.75;0.50;;;;;;;20.97;47.84;94253.50;6035994;23;20015;-91
2022/07/09 06:06:03;;;;;;;0.73;0.55;;;;;;;20.99;47.83;94251.75;6014167;23;20059;-92
2022/07/09 06:08:54;;;;;;;0.40;0.40;;;;;;;20.96;47.87;94239.00;6088885;23;20022;-91
2022/07/09 06:11:21;;;;;;;0.50;0.50;;;;;;;20.95;48.04;94251.25;6126455;23;20057;-92
2022/07/09 06:14:07;;;;;;;0.50;0.50;;;;;;;20.96;47.83;94244.50;6064021;23;20158;-92
2022/07/09 06:16:41;;;;;;;0.50;0.50;;;;;;;20.95;47.93;94248.50;6050260;23;20063;-92
2022/07/09 06:19:14;;;;;;;0.70;0.70;;;;;;;20.96;47.98;94247.25;6018694;23;20023;-92
2022/07/09 06:21:41;;;;;;;0.73;0.60;;;;;;;20.96;47.85;94247.25;6026318;23;20018;-92
2022/07/09 06:24:09;;;;;;;0.40;0.40;;;;;;;20.97;47.92;94237.75;6057702;23;20033;-93
2022/07/09 06:26:37;;;;;;;;;;;;;;;20.98;47.85;94242.00;6149823;23;20021;-91
2022/07/09 06:29:14;;;;;;;2.45;0.52;;;;;;;20.97;47.94;94240.50;6160730;23;19935;-92
2022/07/09 06:31:47;;;;;;;0.60;0.40;;;;;;;20.95;48.12;94245.00;6110609;23;20013;-91
2022/07/09 06:34:14;;;;;;;0.75;0.63;;;;;;;20.95;47.89;94245.00;6146172;23;20017;-91
2022/07/09 06:36:50;;;;;;;0.90;0.68;;;;;;;20.95;47.91;94240.25;6148864;23;20011;-91
2022/07/09 06:42:07;;;;;;;0.70;0.57;;;;;;;20.96;48.06;94230.75;6158018;23;20075;-92
2022/07/09 06:44:34;;;;;;;0.50;0.47;;;;;;;21.00;47.87;94233.97;6080168;23;20020;-92
2022/07/09 06:46:59;;;;;;;0.52;0.52;;;;;;;21.01;47.82;94243.72;6073988;23;20030;-92
2022/07/09 06:49:28;;;;;;;0.40;0.40;;;;;;;21.03;47.89;94226.72;6067210;23;20518;-91
2022/07/09 06:52:04;;;;;;;1.08;0.60;;;;;;;21.03;47.73;94238.44;6051664;23;20022;-92
2022/07/09 06:54:30;;;;;;;0.63;0.50;;;;;;;21.04;47.71;94233.69;6099212;23;20016;-92
2022/07/09 06:56:57;;;;;;;0.68;0.50;;;;;;;21.05;47.79;94230.44;6045555;23;20029;-92
2022/07/09 06:59:25;;;;;;;0.50;0.50;;;;;;;21.06;47.65;94231.94;6041623;23;20031;-91
2022/07/09 07:01:58;;;;;;;0.40;0.40;;;;;;;21.07;47.97;94224.44;6038971;23;20022;-91
2022/07/09 07:04:25;;;;;;;0.60;0.50;;;;;;;21.09;47.77;94228.19;6010422;23;20064;-92
2022/07/09 07:06:54;;;;;;;0.90;0.57;;;;;;;21.09;47.82;94230.19;6026285;23;20110;-92
2022/07/09 07:09:23;;;;;;;1.40;0.70;;;;;;;21.08;47.83;94234.94;5979914;23;20023;-91
2022/07/09 07:11:52;;;;;;;0.60;0.55;;;;;;;21.09;47.66;94232.94;5969837;23;20024;-92
2022/07/09 07:14:18;;;;;;;0.73;0.47;;;;;;;21.08;47.91;94234.19;5979005;23;20028;-92
2022/07/09 07:16:53;;;;;;;0.40;0.40;;;;;;;21.11;47.77;94233.16;5967946;24;20016;-92
2022/07/09 07:19:31;;;;;;;1.08;0.40;;;;;;;21.11;47.76;94233.91;5960267;24;20040;-92
2022/07/09 07:22:06;;;;;;;1.05;0.52;;;;;;;21.13;47.46;94236.16;5972235;23;20028;-91
2022/07/09 07:24:41;;;;;;;0.95;0.57;;;;;;;21.13;47.61;94231.41;5956797;23;20033;-92
2022/07/09 07:27:12;;;;;;;0.60;0.43;;;;;;;21.15;47.71;94236.41;5966786;23;20026;-92
2022/07/09 07:29:44;;;;;;;1.98;0.60;;;;;;;21.15;47.66;94226.16;5986510;23;20020;-91
2022/07/09 07:32:24;;;;;;;0.60;0.52;;;;;;;21.17;48.18;94231.16;6057452;23;20014;-93
2022/07/09 07:35:05;;;;;;;0.55;0.43;;;;;;;21.16;47.87;94224.16;6071642;23;20546;-92
2022/07/09 07:37:35;;;;;;;0.70;0.50;;;;;;;21.16;47.60;94219.41;6037837;23;20018;-92
2022/07/09 07:40:11;;;;;;;0.85;0.50;;;;;;;21.18;47.66;94216.88;6070597;23;20014;-91
2022/07/09 07:42:40;;;;;;;0.85;0.47;;;;;;;21.19;47.75;94217.63;6096433;23;20017;-92
2022/07/09 07:45:07;;;;;;;0.60;0.60;;;;;;;21.20;47.52;94217.16;6129813;23;20520;-92
2022/07/09 07:47:36;;;;;;;0.85;0.55;;;;;;;21.19;47.59;94223.88;6128642;23;20035;-92
2022/07/09 07:50:08;;;;;;;0.50;0.50;;;;;;;21.19;47.70;94218.38;6127643;23;20041;-92
2022/07/09 07:52:43;;;;;;;0.40;0.40;;;;;;;21.16;47.92;94224.16;6122587;23;20083;-92
2022/07/09 07:55:10;;;;;;;0.65;0.52;;;;;;;21.19;47.65;94229.38;6125370;23;20017;-91
2022/07/09 07:57:39;;;;;;;0.80;0.80;;;;;;;21.17;47.63;94220.91;6136437;23;20027;-91
2022/07/09 08:00:06;;;;;;;0.95;0.55;;;;;;;21.16;47.69;94227.66;6128542;23;20096;-93
2022/07/09 08:02:37;;;;;;;0.45;0.45;;;;;;;21.17;47.63;94222.91;6153717;22;20011;-92
2022/07/09 08:05:06;;;;;;;1.08;0.50;;;;;;;21.18;47.81;94233.38;6235383;22;20016;-91
2022/07/09 08:07:41;;;;;;;0.80;0.60;;;;;;;21.17;47.61;94237.38;6211936;22;20019;-92
2022/07/09 08:10:09;;;;;;;0.70;0.50;;;;;;;21.18;47.81;94229.88;6179424;23;20030;-92
2022/07/09 08:12:37;;;;;;;0.60;0.60;;;;;;;21.17;47.92;94236.66;6157405;23;20040;-92
2022/07/09 08:15:10;;;;;;;0.43;0.43;;;;;;;21.19;47.96;94234.88;6072041;23;20108;-93
2022/07/09 08:17:40;;;;;;;0.43;0.43;;;;;;;21.18;47.85;94221.63;6165783;22;20024;-92
2022/07/09 08:20:13;;;;;;;0.80;0.47;;;;;;;21.20;47.87;94224.66;6206033;22;20019;-91
2022/07/09 08:22:42;;;;;;;0.50;0.40;;;;;;;21.19;47.85;94232.13;6105320;23;20045;-91
2022/07/09 08:25:09;;;;;;;1.20;0.47;;;;;;;21.22;47.47;94227.63;6135256;23;20481;-92
2022/07/09 08:27:44;;;;;;;0.98;0.77;;;;;;;21.18;47.87;94227.88;6101167;23;20384;-91
2022/07/09 08:30:11;;;;;;;0.80;0.80;;;;;;;21.22;47.94;94226.91;6112039;23;20017;-91
2022/07/09 08:32:39;;;;;;;0.50;0.47;;;;;;;21.23;47.78;94233.88;6102766;23;20455;-93
2022/07/09 08:35:14;;;;;;;0.73;0.40;;;;;;;21.24;47.85;94227.13;6186173;23;20115;-93
2022/07/09 08:37:41;;;;;;;0.50;0.50;;;;;;;21.20;47.83;94224.66;6131798;23;20088;-92
2022/07/09 08:40:09;;;;;;;0.70;0.47;;;;;;;21.20;48.10;94225.41;6031550;23;20084;-91
2022/07/09 08:42:36;;;;;;;0.68;0.52;;;;;;;21.23;47.89;94220.88;6026547;23;20542;-92
2022/07/09 08:45:12;;;;;;;4.03;0.85;;;;;;;21.18;47.99;94213.38;6042429;23;20079;-91
2022/07/09 08:47:40;;;;;;;8.82;1.00;;;;;;;21.21;48.14;94217.91;6008119;23;20090;-93
2022/07/09 08:50:12;;;;;;;10.65;1.85;;;;;;;21.21;48.15;94223.41;5974788;23;20023;-92
2022/07/09 08:52:40;;;;;;;17.98;3.17;;;;;;;21.21;48.02;94220.66;6017303;23;20015;-91
2022/07/09 08:55:07;;;;;;;17.05;2.45;;;;;;;21.23;48.06;94204.38;6005038;23;20015;-92
2022/07/09 08:57:38;;;;;;;5.30;1.17;;;;;;;21.22;47.90;94219.38;6013164;23;20023;-92
2022/07/09 09:00:07;;;;;;;5.25;1.85;;;;;;;21.22;48.16;94218.66;6001059;23;20039;-92
2022/07/09 09:02:45;;;;;;;6.88;2.28;;;;;;;21.22;48.11;94221.41;6026113;23;20019;-93
2022/07/09 09:05:16;;;;;;;7.90;1.73;;;;;;;21.23;48.04;94214.63;6039732;23;20098;-92
2022/07/09 09:07:43;;;;;;;6.97;1.55;;;;;;;21.25;48.01;94206.59;6039169;23;20791;-92
2022/07/09 09:10:21;;;;;;;5.82;1.27;;;;;;;21.23;47.98;94209.13;6105849;23;20033;-93
2022/07/09 09:12:49;;;;;;;14.43;1.80;;;;;;;21.26;48.18;94208.84;6080684;23;20106;-92
2022/07/09 09:15:19;;;;;;;13.65;1.60;;;;;;;21.23;47.94;94200.88;6123541;23;20406;-93
2022/07/09 09:17:45;;;;;;;5.20;1.55;;;;;;;21.25;47.95;94198.34;6088012;23;20076;-92
2022/07/09 09:20:16;;;;;;;9.27;2.38;;;;;;;21.26;48.13;94191.59;6098224;23;20508;-91
2022/07/09 09:25:08;;;;;;;26.65;3.95;;;;;;;21.31;48.34;94193.56;6256873;22;20508;-90
2022/07/09 09:27:35;;;;;;;179.35;13.98;;;;;;;21.28;48.33;94194.59;6219353;22;20046;-91
2022/07/09 09:30:05;;;;;;;47.33;5.75;;;;;;;21.28;48.11;94197.34;6187298;23;20028;-91
2022/07/09 09:33:03;;;;;;;24.00;3.30;;;;;;;21.26;48.20;94197.84;6186152;23;20084;-92
2022/07/09 09:35:51;;;;;;;60.72;5.47;;;;;;;;;;6159411;23;20056;-92
2022/07/09 09:38:29;;;;;;;58.53;5.20;;;;;;;21.28;48.16;94189.84;6212978;23;20021;-94
2022/07/09 09:41:52;;;;;;;114.45;9.77;;;;;;;21.24;48.19;94194.13;6145339;23;20025;-92
2022/07/09 09:44:30;;;;;;;93.70;8.02;;;;;;;21.28;48.10;94183.59;6103578;23;20036;-91
2022/07/09 09:47:09;;;;;;;1017.92;171.73;;;;;;;21.24;47.98;94180.38;6085482;23;20018;-94
2022/07/09 09:49:36;;;;;;;450.38;58.50;;;;;;;21.27;48.04;94190.34;6090422;23;20037;-88
2022/07/09 09:52:08;;;;;;;566.85;71.88;;;;;;;21.23;48.15;94176.13;6095313;23;20106;-88
2022/07/09 09:54:35;;;;;;;775.50;113.32;;;;;;;21.20;48.16;94178.66;6058242;23;20058;-91
2022/07/09 09:57:05;;;;;;;223.13;27.95;;;;;;;21.24;47.81;94172.88;6036112;23;20106;-92
2022/07/09 10:00:01;;;;;;;676.55;91.30;;;;;;;21.21;48.21;94173.91;6040713;23;20023;-90
2022/07/09 10:02:27;;;;;;;285.75;32.40;;;;;;;21.22;48.36;94175.38;5948830;23;20027;-92
2022/07/09 10:04:52;;;;;;;204.57;24.40;;;;;;;21.10;48.67;94168.44;5958221;23;20389;-90
2022/07/09 10:07:19;;;;;;;233.73;26.63;;;;;;;21.16;48.32;94166.41;5967040;23;20361;-91
2022/07/09 10:09:55;;;;;;;199.05;24.65;;;;;;;21.11;48.52;94175.44;5956816;23;20044;-91
2022/07/09 10:12:27;;;;;;;115.60;15.13;;;;;;;21.15;48.58;94165.66;5982824;23;20032;-90
2022/07/09 10:14:53;;;;;;;97.65;10.40;;;;;;;21.19;48.67;94168.16;5979987;23;20520;-91
2022/07/09 10:17:18;;;;;;;78.63;11.50;;;;;;;21.15;48.72;94168.41;5983086;23;20099;-92
2022/07/09 10:19:54;;;;;;;55.45;9.05;;;;;;;21.16;48.89;94169.91;5984641;23;20024;-93
2022/07/09 10:22:21;;;;;;;47.08;6.97;;;;;;;21.14;48.88;94166.91;6004066;23;20055;-90
2022/07/09 10:24:50;;;;;;;31.58;5.18;;;;;;;21.14;49.64;94166.16;5982471;23;20031;-91
2022/07/09 10:27:16;;;;;;;40.22;8.35;;;;;;;21.10;48.63;94160.19;5981592;23;20104;-91
2022/07/09 10:29:57;;;;;;;40.67;6.13;;;;;;;21.13;48.38;94146.19;5982504;23;20449;-93
2022/07/09 10:32:26;;;;;;;64.05;10.52;;;;;;;21.08;48.72;94155.19;6019292;23;20023;-90
2022/07/09 10:35:05;;;;;;;41.33;5.65;;;;;;;21.13;48.56;94151.69;6018765;23;20378;-90
2022/07/09 10:37:48;;;;;;;37.08;7.18;;;;;;;21.08;48.60;94157.22;5966150;23;20546;-93
2022/07/09 10:40:24;;;;;;;39.70;6.40;;;;;;;21.14;48.41;94153.16;6085970;23;20108;-93
2022/07/09 10:43:02;;;;;;;18.75;3.40;;;;;;;21.15;48.07;94146.41;6044467;23;20015;-93
2022/07/09 10:45:36;;;;;;;15.15;3.05;;;;;;;21.11;48.61;94137.69;5992607;23;20023;-93
2022/07/09 10:48:04;;;;;;;18.90;3.53;;;;;;;21.07;48.79;94142.72;6065183;23;20026;-93
2022/07/09 10:50:34;;;;;;;29.20;5.05;;;;;;;21.09;48.46;94137.47;6038334;23;20023;-93
2022/07/09 10:53:03;;;;;;;18.77;3.60;;;;;;;21.11;48.83;94136.94;6056246;23;20026;-93
2022/07/09 10:55:29;;;;;;;13.82;4.13;;;;;;;21.07;48.89;94150.22;6022962;23;20022;-93
2022/07/09 10:58:00;;;;;;;12.43;4.22;;;;;;;21.09;48.58;94144.97;6045148;23;20053;-93
2022/07/09 11:00:32;;;;;;;13.63;3.60;;;;;;;21.08;48.53;94151.72;5963477;23;20031;-93
2022/07/09 11:03:04;;;;;;;10.23;2.80;;;;;;;21.06;48.42;94149.47;6009796;23;20019;-93
2022/07/09 11:05:32;;;;;;;15.70;4.60;;;;;;;21.03;48.62;94152.50;5945614;24;20520;-93
2022/07/09 11:08:06;;;;;;;11.73;4.00;;;;;;;21.05;48.85;94155.47;5917344;24;20028;-93
2022/07/09 11:10:37;;;;;;;19.52;4.63;;;;;;;21.04;48.89;94162.97;5908990;24;20024;-93
2022/07/09 11:13:06;;;;;;;6.45;3.08;;;;;;;21.01;49.05;94160.50;5872164;24;20029;-93
2022/07/09 11:15:34;;;;;;;11.13;3.72;;;;;;;20.91;49.36;94157.31;5864514;24;20092;-93
2022/07/09 11:18:14;;;;;;;14.77;4.57;;;;;;;20.97;48.98;94158.03;6029838;23;20028;-93
2022/07/09 11:20:45;;;;;;;4.70;2.30;;;;;;;20.94;48.82;94153.56;6047214;23;20023;-92
2022/07/09 11:23:16;;;;;;;8.57;3.35;;;;;;;20.84;49.27;94149.63;6005908;23;20055;-92
2022/07/09 11:25:46;;;;;;;12.57;3.28;;;;;;;20.80;49.25;94154.63;6036239;23;20019;-93
2022/07/09 11:28:22;;;;;;;9.35;3.08;;;;;;;20.78;48.87;94151.66;6032169;23;20479;-93
2022/07/09 11:31:16;;;;;;;4.75;2.20;;;;;;;20.83;48.87;94153.63;6045741;23;20046;-93
2022/07/09 11:36:38;;;;;;;9.10;2.30;;;;;;;20.85;48.55;94143.59;5993923;23;20025;-93
2022/07/09 11:39:06;;;;;;;7.55;2.63;;;;;;;20.84;48.61;94141.38;6029448;23;20027;-92
2022/07/09 11:41:43;;;;;;;6.50;2.45;;;;;;;20.81;49.10;94139.63;6013158;23;20021;-93
2022/07/09 11:44:28;;;;;;;6.93;2.45;;;;;;;20.85;48.90;94137.38;6035303;23;20471;-92
2022/07/09 11:47:14;;;;;;;8.32;3.00;;;;;;;20.77;49.41;94123.44;6052666;23;20019;-93
2022/07/09 11:49:51;;;;;;;13.57;4.13;;;;;;;20.75;49.38;94131.44;5957082;24;20099;-92
2022/07/09 11:52:23;;;;;;;5.57;2.60;;;;;;;20.71;49.30;94135.72;6044632;23;20055;-93
2022/07/09 11:54:56;;;;;;;8.65;2.50;;;;;;;20.77;49.26;94128.94;6031608;23;20062;-93
2022/07/09 11:57:35;;;;;;;4.22;2.20;;;;;;;20.83;49.40;94132.38;6054325;23;20020;-93